Aérodrome :
LOGIN :

S'inscrire | Disclaimer

   EN    FR    IT 

 










Légende :    VFR   VFR Marginal   IFR   IFR Intensif   IFR Très Intensif
Visi : 
Plafond : 
>= 8 km
>= 3000ft
5 à 8 km
1000 à 3000 ft
1500m à 5 km
500 à 1000 ft
800 à 1500m
200 à 500 ft
< 800m
< 200 ft
Symboles :   Orages  Brouillard  Fortes neiges  Fortes précipitations  Vent > 20 kt
SIGMETs :   Divers  Orages  Givrage  Turbulence  Onde Orograph.  Cendres Volcan.






- Altitude de l'aérodrome : 309 ft
- Code IATA : FNI


LFTW - Nîmes Garons

DERNIER METAR :
  • 110430Z AUTO 02012KT 9999 OVC009/// ///CB 11/10 Q1008 TEMPO 3000 RA BKN010 BKN020CB BECMG 16012KT

METARs EXPIRÉS :
  • 110400Z AUTO 03010KT 350V050 9999 -RADZ OVC006/// ///TCU 12/11 Q1008 TEMPO 3000 RA BKN010 BKN020CB BECMG 16012KT
  • 110330Z AUTO 14004KT 120V190 9999 -RADZ BKN008/// BKN015/// BKN020/// ///CB 15/14 Q1008 TEMPO 3000 RA BKN010 BKN020CB
  • 110300Z AUTO 16004KT 130V190 9999 BKN009/// OVC015/// ///CB 15/14 Q1008 TEMPO 3000 RA BKN010 BKN020CB
  • 110230Z AUTO 16007KT 130V190 9999 OVC008/// ///CB 15/14 Q1008
  • 110200Z AUTO 17007KT 130V200 9999 BKN007/// OVC014/// ///CB 15/14 Q1008

TAF AMD TAF LFTW
Valide du 11 à 04h jusqu'au 12 à 03h UTC


110438Z 1104/1203 35008KT 9999 BKN005 BKN010
TEMPO 1104/1108 3000 RA
PROB40
TEMPO 1104/1113 TSRA BKN010 BKN020CB
BECMG 1105/1107 25008KT SCT020
BECMG 1111/1113 33012KT NSC
TEMPO 1115/1119 34015G25KT



MET'MAP, la Météo Aéronautique d'un coup d'oeil ! - Copyright ORBIFLY Décembre 2007 - Disclaimer

ORBIFLY MET'MAP TEAM :

Programmation & Développement : Alexandra Zaïnal
Sur une idée originale de : Baudouin d'Aumeries
Assistance à la programmation : Marc-Olivier Méhu
Soutien technique & logistique : Manuel Goepfert

Contact : metmap@orbifly.com




SOURCES & CREDITS :

   NOAA